Time;durP1;ratioP1;P1;durP2;ratioP2;P2;SDS_P1;SDS_P2;PMS_P1;PMS_P2;Temp;Humidity;BMP_temperature;BMP_pressure;BME280_temperature;BME280_humidity;BME280_pressure;Samples;Min_cycle;Max_cycle;Signal;HPM_P1;HPM_P2
2021/05/24 00:00:30;;;;;;;;;8.00;8.00;;;;;30.82;59.11;98589.41;4918312;29;8871;-70
2021/05/24 00:03:00;;;;;;;;;8.75;8.75;;;;;30.71;61.29;98583.28;4917979;29;8851;-69
2021/05/24 00:05:31;;;;;;;;;8.25;8.25;;;;;30.68;61.03;98583.31;4917934;29;9462;-70
2021/05/24 00:08:01;;;;;;;;;9.00;9.00;;;;;30.68;61.88;98594.22;4918695;29;8905;-70
2021/05/24 00:10:33;;;;;;;;;9.25;9.25;;;;;30.68;61.22;98577.88;4917813;29;8855;-70
2021/05/24 00:13:06;;;;;;;;;9.50;9.50;;;;;30.72;62.52;98590.28;4918057;29;8863;-70
2021/05/24 00:15:39;;;;;;;;;10.75;10.75;;;;;30.66;61.71;98589.19;4917879;29;8863;-70
2021/05/24 00:18:08;;;;;;;;;10.00;10.00;;;;;30.65;60.44;98611.38;4917721;29;8954;-70
2021/05/24 00:20:41;;;;;;;;;9.50;9.50;;;;;30.62;61.14;98617.63;4916558;29;9643;-70
2021/05/24 00:23:09;;;;;;;;;11.25;11.25;;;;;30.44;61.38;98607.63;4917679;29;8847;-70
2021/05/24 00:25:38;;;;;;;;;9.00;9.00;;;;;30.54;62.30;98632.44;4917726;29;8846;-70
2021/05/24 00:28:12;;;;;;;;;12.00;12.00;;;;;30.41;61.64;98615.81;4918586;29;8894;-70
2021/05/24 00:30:43;;;;;;;;;10.00;10.00;;;;;30.46;61.72;98621.63;4917791;29;8855;-70
2021/05/24 00:33:12;;;;;;;;;9.25;9.25;;;;;30.47;62.37;98623.16;4917445;29;8854;-70
2021/05/24 00:35:42;;;;;;;;;8.50;8.50;;;;;30.51;62.41;98623.91;4917442;29;8862;-70
2021/05/24 00:38:11;;;;;;;;;8.50;8.50;;;;;30.55;61.44;98632.03;4917404;29;9621;-70
2021/05/24 00:40:40;;;;;;;;;8.50;8.50;;;;;30.56;61.76;98636.31;4917459;29;8851;-70
2021/05/24 00:43:10;;;;;;;;;8.50;8.50;;;;;30.39;62.12;98593.69;4917012;29;8995;-70
2021/05/24 00:45:40;;;;;;;;;6.75;6.75;;;;;30.36;62.01;98595.25;4917193;29;8858;-70
2021/05/24 00:48:09;;;;;;;;;7.25;7.25;;;;;30.55;61.95;98617.66;4917720;29;9589;-70
2021/05/24 00:50:39;;;;;;;;;8.00;8.00;;;;;30.60;62.30;98617.25;4917209;29;8871;-70
2021/05/24 00:53:09;;;;;;;;;8.00;8.00;;;;;30.70;61.19;98624.53;4917073;29;8858;-70
2021/05/24 00:55:37;;;;;;;;;8.50;7.50;;;;;30.77;59.93;98621.75;4915904;29;8949;-70
2021/05/24 00:58:06;;;;;;;;;8.00;8.00;;;;;30.85;62.15;98620.50;4917032;29;8901;-70
2021/05/24 01:00:45;;;;;;;;;10.75;10.75;;;;;30.90;61.65;98613.84;4916972;29;8870;-71
2021/05/24 01:03:14;;;;;;;;;8.75;8.75;;;;;30.95;61.63;98616.13;4917292;29;8839;-71
2021/05/24 01:05:45;;;;;;;;;7.25;7.25;;;;;31.02;61.08;98616.81;4916891;29;9635;-70
2021/05/24 01:08:15;;;;;;;;;8.75;8.75;;;;;30.92;61.64;98598.63;4916391;29;8905;-70
2021/05/24 01:10:44;;;;;;;;;5.25;5.25;;;;;31.07;61.27;98610.13;4916489;29;8850;-71
2021/05/24 01:13:15;;;;;;;;;7.50;7.50;;;;;31.08;62.26;98611.69;4916473;29;8884;-71
2021/05/24 01:15:44;;;;;;;;;7.00;7.00;;;;;31.08;62.19;98608.97;4912839;29;8996;-71
2021/05/24 01:18:13;;;;;;;;;11.25;9.50;;;;;31.08;61.87;98606.22;4915201;29;8874;-72
2021/05/24 01:20:43;;;;;;;;;6.25;6.25;;;;;30.92;61.50;98593.19;4915220;29;8871;-72
2021/05/24 01:23:15;;;;;;;;;7.00;7.00;;;;;31.05;60.79;98615.22;4915765;29;8855;-70
2021/05/24 01:25:49;;;;;;;;;7.25;7.25;;;;;31.03;61.06;98620.31;4914221;29;8859;-71
2021/05/24 01:28:18;;;;;;;;;5.00;5.00;;;;;30.97;60.14;98614.53;4915024;29;8939;-71
2021/05/24 01:30:49;;;;;;;;;7.00;7.00;;;;;30.93;61.68;98616.53;4915038;29;8902;-69
2021/05/24 01:33:18;;;;;;;;;5.50;5.50;;;;;30.90;61.98;98614.59;4914783;29;8879;-70
2021/05/24 01:35:47;;;;;;;;;6.25;6.25;;;;;30.90;60.85;98608.38;4914542;29;8935;-71
2021/05/24 01:38:16;;;;;;;;;6.00;6.00;;;;;30.90;61.05;98600.22;4914590;29;8917;-71
2021/05/24 01:40:47;;;;;;;;;5.20;5.20;;;;;30.74;61.25;98571.59;4915035;29;8899;-71
2021/05/24 01:43:17;;;;;;;;;5.20;5.20;;;;;30.98;61.59;98596.22;4915095;29;8862;-71
2021/05/24 01:45:46;;;;;;;;;5.00;5.00;;;;;30.94;60.83;98588.09;4914419;29;8859;-71
2021/05/24 01:48:14;;;;;;;;;5.50;5.50;;;;;31.06;60.66;98594.97;4914394;29;8957;-72
2021/05/24 01:50:43;;;;;;;;;6.00;6.00;;;;;30.82;60.78;98553.22;4914905;29;8897;-70
2021/05/24 01:53:13;;;;;;;;;4.80;4.80;;;;;31.20;59.54;98594.06;4914790;29;8863;-70
2021/05/24 01:55:42;;;;;;;;;4.50;4.50;;;;;31.26;59.51;98601.34;4913983;29;8878;-72
2021/05/24 01:58:11;;;;;;;;;7.60;7.60;;;;;31.32;59.52;98602.44;4914110;29;8851;-72
2021/05/24 02:00:41;;;;;;;;;6.00;6.00;;;;;31.18;59.43;98578.13;4915087;29;8874;-72
2021/05/24 02:03:10;;;;;;;;;4.40;4.40;;;;;31.39;59.95;98598.84;4914600;29;8926;-72
2021/05/24 02:05:39;;;;;;;;;4.60;4.60;;;;;31.38;59.95;98598.06;4913438;29;8988;-72
2021/05/24 02:08:08;;;;;;;;;5.75;5.75;;;;;31.41;58.56;98594.53;4913857;29;8982;-72
2021/05/24 02:10:40;;;;;;;;;4.20;4.20;;;;;31.41;58.18;98588.31;4913221;29;8882;-71
2021/05/24 02:13:09;;;;;;;;;4.00;4.00;;;;;31.37;59.07;98573.97;4912522;29;8886;-70
2021/05/24 02:15:41;;;;;;;;;5.00;5.00;;;;;31.43;55.77;98578.53;4914094;29;8893;-72
2021/05/24 02:18:12;;;;;;;;;4.00;4.00;;;;;31.36;59.09;98573.19;4913536;29;8855;-72
2021/05/24 02:20:41;;;;;;;;;5.20;5.20;;;;;31.32;58.39;98567.00;4913822;29;9001;-72
2021/05/24 02:23:11;;;;;;;;;4.75;4.75;;;;;31.39;58.87;98575.09;4913182;29;8874;-71
2021/05/24 02:25:40;;;;;;;;;6.25;6.25;;;;;31.45;59.49;98578.91;4914099;29;8862;-72
2021/05/24 02:28:09;;;;;;;;;5.75;5.50;;;;;31.49;57.35;98578.84;4913621;29;8878;-70
2021/05/24 02:30:38;;;;;;;;;6.00;6.00;;;;;31.36;57.98;98556.06;4914227;29;8891;-72
2021/05/24 02:33:07;;;;;;;;;6.50;4.75;;;;;31.55;57.77;98584.63;4912927;29;8863;-74
2021/05/24 02:35:36;;;;;;;;;4.75;4.75;;;;;31.57;57.61;98584.97;4914555;29;9631;-73
2021/05/24 02:38:05;;;;;;;;;7.25;7.25;;;;;31.61;57.79;98575.56;4915089;29;8867;-71
2021/05/24 02:40:35;;;;;;;;;5.25;5.25;;;;;31.59;56.79;98568.97;4903752;29;8851;-71
2021/05/24 02:43:04;;;;;;;;;6.00;6.00;;;;;31.68;56.74;98588.34;4910269;29;8882;-71
2021/05/24 02:45:33;;;;;;;;;5.25;5.25;;;;;31.65;56.74;98576.28;4912765;29;9816;-70
2021/05/24 02:48:02;;;;;;;;;7.00;7.00;;;;;31.77;56.40;98578.47;4912515;29;8859;-71
2021/05/24 02:50:31;;;;;;;;;8.25;8.25;;;;;31.66;58.45;98553.28;4913187;29;8870;-72
2021/05/24 02:53:00;;;;;;;;;6.33;6.33;;;;;31.85;57.12;98570.97;4907344;29;8862;-71
2021/05/24 02:55:28;;;;;;;;;6.75;6.75;;;;;31.88;57.96;98575.59;4903674;29;8839;-71
2021/05/24 02:57:57;;;;;;;;;6.20;6.20;;;;;31.91;56.89;98565.81;4902755;29;8920;-71
2021/05/24 03:00:27;;;;;;;;;5.25;5.25;;;;;31.94;57.20;98562.25;4904515;29;8867;-71
2021/05/24 03:02:57;;;;;;;;;4.20;4.20;;;;;31.92;56.22;98553.72;4909199;29;8853;-74
2021/05/24 03:05:26;;;;;;;;;5.00;5.00;;;;;31.98;57.23;98562.97;4905068;29;8840;-72
2021/05/24 03:07:55;;;;;;;;;6.00;6.00;;;;;32.04;56.35;98566.78;4908140;29;8869;-72
2021/05/24 03:10:25;;;;;;;;;4.60;4.60;;;;;32.04;56.76;98553.91;4905097;29;8870;-71
2021/05/24 03:12:55;;;;;;;;;6.00;5.75;;;;;32.09;56.33;98558.13;4906805;29;8943;-71
2021/05/24 03:15:25;;;;;;;;;5.60;5.60;;;;;32.11;57.06;98553.00;4908513;29;8875;-72
2021/05/24 03:17:54;;;;;;;;;8.00;8.00;;;;;32.16;57.14;98547.06;4906597;29;8897;-73
2021/05/24 03:20:23;;;;;;;;;5.80;5.80;;;;;32.29;55.01;98542.59;4906466;29;8977;-71
2021/05/24 03:22:51;;;;;;;;;5.20;5.20;;;;;32.42;56.01;98553.69;4906915;29;8973;-73
2021/05/24 03:25:21;;;;;;;;;6.60;6.60;;;;;32.45;55.90;98546.59;4916305;29;8858;-72
2021/05/24 03:27:49;;;;;;;;;6.60;6.60;;;;;32.60;56.56;98556.06;4918527;29;8855;-74
2021/05/24 03:30:19;;;;;;;;;5.40;5.40;;;;;32.66;55.75;98557.09;4905197;29;9595;-72
2021/05/24 03:32:48;;;;;;;;;7.00;7.00;;;;;32.70;55.12;98563.28;4899592;29;8940;-72
2021/05/24 03:35:17;;;;;;;;;6.20;6.20;;;;;32.75;55.70;98568.25;4914258;29;8866;-72
2021/05/24 03:37:46;;;;;;;;;5.60;5.60;;;;;32.75;56.26;98563.56;4917436;29;8873;-71
2021/05/24 03:40:18;;;;;;;;;5.60;5.60;;;;;32.84;56.15;98568.50;4917932;29;8989;-70
2021/05/24 03:42:48;;;;;;;;;5.40;5.40;;;;;32.82;55.10;98559.19;4918051;29;8855;-70
2021/05/24 03:45:21;;;;;;;;;6.40;6.40;;;;;32.88;54.95;98549.31;4918151;29;8858;-70
2021/05/24 03:47:51;;;;;;;;;4.80;4.80;;;;;33.00;54.91;98565.84;4914749;29;8961;-70
2021/05/24 03:50:21;;;;;;;;;4.20;4.20;;;;;33.07;54.55;98562.19;4918143;29;8851;-70
2021/05/24 03:52:49;;;;;;;;;7.00;7.00;;;;;33.13;54.62;98559.72;4917162;29;8851;-70
2021/05/24 03:55:19;;;;;;;;;5.00;5.00;;;;;33.15;54.56;98557.34;4917405;29;8895;-70
2021/05/24 03:57:49;;;;;;;;;4.80;4.80;;;;;33.06;53.91;98546.97;4917389;29;8859;-69
2021/05/24 04:00:18;;;;;;;;;4.40;4.40;;;;;33.17;53.52;98568.63;4916070;29;8867;-69
2021/05/24 04:02:47;;;;;;;;;7.00;7.00;;;;;33.20;54.99;98563.09;4915846;29;8951;-69
2021/05/24 04:05:25;;;;;;;;;4.20;4.20;;;;;33.20;55.03;98540.44;4914404;29;8835;-69
2021/05/24 04:07:54;;;;;;;;;5.60;5.60;;;;;33.19;54.79;98539.69;4916452;29;9012;-71
2021/05/24 04:10:31;;;;;;;;;5.00;5.00;;;;;33.17;54.23;98524.88;4915948;29;8843;-70
2021/05/24 04:13:00;;;;;;;;;7.60;7.60;;;;;33.12;54.65;98509.00;4915937;29;8843;-70
2021/05/24 04:15:29;;;;;;;;;6.00;6.00;;;;;33.22;55.22;98527.91;4915032;29;8878;-70
2021/05/24 04:18:01;;;;;;;;;4.00;4.00;;;;;33.26;54.98;98530.56;4913260;29;8883;-70
2021/05/24 04:20:30;;;;;;;;;5.80;5.80;;;;;33.29;55.57;98535.97;4913447;29;9601;-70
2021/05/24 04:23:00;;;;;;;;;5.80;5.80;;;;;33.31;54.06;98539.06;4913216;29;8855;-70
2021/05/24 04:25:28;;;;;;;;;5.40;5.40;;;;;33.30;53.87;98539.47;4915443;29;8914;-71
2021/05/24 04:27:57;;;;;;;;;9.00;9.00;;;;;33.35;53.92;98547.19;4914433;29;8835;-70
2021/05/24 04:30:26;;;;;;;;;5.60;5.60;;;;;33.41;53.83;98548.22;4915221;29;8882;-70
2021/05/24 04:32:55;;;;;;;;;2.80;2.80;;;;;33.47;53.64;98538.31;4915004;29;8865;-70
2021/05/24 04:35:23;;;;;;;;;6.20;6.20;;;;;33.43;53.75;98526.69;4913527;29;8870;-71
2021/05/24 04:37:53;;;;;;;;;6.60;6.60;;;;;33.59;53.54;98542.34;4914916;29;8871;-71
2021/05/24 04:40:21;;;;;;;;;3.40;3.40;;;;;33.72;53.26;98543.97;4915082;29;8862;-71
2021/05/24 04:42:50;;;;;;;;;3.60;3.60;;;;;33.82;52.45;98544.16;4914607;29;8990;-71
2021/05/24 04:45:19;;;;;;;;;4.80;4.80;;;;;33.92;52.54;98538.44;4913154;29;8862;-70
2021/05/24 04:47:48;;;;;;;;;5.00;5.00;;;;;34.00;52.11;98549.97;4912492;29;8897;-71
2021/05/24 04:50:17;;;;;;;;;6.00;6.00;;;;;34.11;52.28;98547.75;4914622;29;8854;-71
2021/05/24 04:52:46;;;;;;;;;5.20;5.20;;;;;34.03;51.86;98517.03;4914822;29;9717;-71
2021/05/24 04:55:16;;;;;;;;;5.40;5.40;;;;;34.25;51.59;98536.44;4913680;29;8881;-71
2021/05/24 04:57:45;;;;;;;;;4.80;4.80;;;;;34.21;50.65;98526.75;4913786;29;9615;-69
2021/05/24 05:00:15;;;;;;;;;5.80;5.80;;;;;34.29;51.14;98519.91;4913514;29;8859;-71
2021/05/24 05:02:47;;;;;;;;;4.00;4.00;;;;;34.41;50.42;98518.44;4911498;29;8866;-70
2021/05/24 05:05:15;;;;;;;;;5.00;5.00;;;;;34.47;51.41;98525.72;4912347;29;8867;-71
2021/05/24 05:07:44;;;;;;;;;5.80;5.80;;;;;34.50;51.21;98510.38;4912635;29;8953;-75
2021/05/24 05:10:13;;;;;;;;;5.00;5.00;;;;;34.58;50.90;98525.41;4909798;29;8867;-71
2021/05/24 05:12:41;;;;;;;;;3.80;3.80;;;;;34.43;50.89;98491.41;4911778;29;8893;-70
2021/05/24 05:15:10;;;;;;;;;6.20;6.20;;;;;34.58;50.51;98506.25;4910971;29;8870;-70
2021/05/24 05:17:43;;;;;;;;;6.60;6.60;;;;;34.52;50.60;98508.75;4910358;29;8965;-75
2021/05/24 05:20:13;;;;;;;;;7.00;7.00;;;;;34.63;51.03;98501.00;4910356;29;8870;-72
2021/05/24 05:22:45;;;;;;;;;5.60;5.60;;;;;34.62;50.40;98485.00;4909772;29;8855;-71
2021/05/24 05:25:14;;;;;;;;;6.40;6.40;;;;;34.77;50.75;98482.63;4909376;29;8871;-71
2021/05/24 05:27:43;;;;;;;;;6.00;6.00;;;;;34.93;50.15;98488.06;4910704;29;9640;-69
2021/05/24 05:30:13;;;;;;;;;5.40;4.80;;;;;34.97;50.05;98484.00;4910932;29;8966;-71
2021/05/24 05:32:41;;;;;;;;;6.00;6.00;;;;;34.99;50.12;98484.34;4911206;29;8873;-73
2021/05/24 05:35:11;;;;;;;;;6.00;6.00;;;;;34.92;50.00;98467.31;4911292;29;9691;-72
2021/05/24 05:38:01;;;;;;;;;9.00;7.80;;;;;35.09;50.17;98478.97;4914610;29;8883;-73
2021/05/24 05:40:33;;;;;;;;;7.00;7.00;;;;;35.12;49.88;98478.06;4865775;29;9135;-70
2021/05/24 05:43:02;;;;;;;;;6.00;6.00;;;;;35.19;49.82;98475.09;4859730;29;8876;-70
2021/05/24 05:45:31;;;;;;;;;6.80;6.80;;;;;35.16;49.54;98463.03;4862878;29;9596;-70
2021/05/24 05:48:01;;;;;;;;;8.20;8.20;;;;;35.28;49.65;98472.47;4864847;29;8883;-70
2021/05/24 05:50:34;;;;;;;;;8.20;8.20;;;;;35.25;49.22;98478.84;4862765;29;8945;-72
2021/05/24 05:53:04;;;;;;;;;7.60;7.60;;;;;35.31;48.41;98475.13;4861142;29;9041;-71
2021/05/24 05:55:33;;;;;;;;;7.80;7.80;;;;;35.35;49.27;98466.03;4861800;29;8868;-70
2021/05/24 05:58:02;;;;;;;;;6.20;6.20;;;;;35.36;49.69;98462.84;4847068;29;8863;-71
2021/05/24 06:00:31;;;;;;;;;4.20;4.20;;;;;35.19;49.88;98433.97;4847464;29;8869;-73
2021/05/24 06:02:59;;;;;;;;;7.00;7.00;;;;;35.21;49.38;98437.81;4861925;29;8994;-74
2021/05/24 06:05:29;;;;;;;;;6.80;6.80;;;;;35.23;49.49;98438.13;4860806;29;8881;-69
2021/05/24 06:07:58;;;;;;;;;7.80;7.80;;;;;35.11;49.61;98411.50;4855834;29;8853;-69
2021/05/24 06:10:27;;;;;;;;;7.00;7.00;;;;;35.24;49.39;98417.75;4856005;29;8871;-71
2021/05/24 06:12:56;;;;;;;;;9.80;9.80;;;;;35.14;49.29;98401.63;4856303;29;8854;-70
2021/05/24 06:15:24;;;;;;;;;7.00;7.00;;;;;35.29;49.27;98406.22;4855912;29;8861;-72
2021/05/24 06:17:53;;;;;;;;;5.60;5.60;;;;;35.38;49.02;98413.81;4892528;29;8886;-70
2021/05/24 06:20:23;;;;;;;;;8.00;8.00;;;;;35.44;48.61;98403.03;4911883;29;8853;-70
2021/05/24 06:22:51;;;;;;;;;4.80;4.80;;;;;35.49;49.12;98380.53;4914071;29;8897;-70
2021/05/24 06:25:20;;;;;;;;;7.80;7.80;;;;;35.48;49.26;98374.28;4913878;29;8946;-70
2021/05/24 06:28:13;;;;;;;;;6.80;6.80;;;;;35.43;49.30;98363.09;4912992;29;8803;-72
2021/05/24 06:30:43;;;;;;;;;7.00;7.00;;;;;35.54;48.74;98358.03;4910272;29;8874;-70
2021/05/24 06:33:11;;;;;;;;;2.80;2.80;;;;;35.64;48.61;98360.41;4911224;29;9124;-70
2021/05/24 06:35:40;;;;;;;;;8.00;8.00;;;;;35.78;49.04;98352.88;4912442;29;8847;-70
2021/05/24 06:38:09;;;;;;;;;8.00;8.00;;;;;35.90;48.01;98346.59;4913197;29;8886;-70
2021/05/24 06:40:38;;;;;;;;;6.00;6.00;;;;;36.05;48.56;98336.66;4914080;29;8839;-70
2021/05/24 06:43:29;;;;;;;;;6.20;6.20;;;;;36.15;46.71;98334.72;4915232;29;8838;-70
2021/05/24 06:45:58;;;;;;;;;9.00;9.00;;;;;36.23;47.54;98328.53;4917779;29;8871;-71
2021/05/24 06:48:27;;;;;;;;;6.20;6.20;;;;;36.30;46.61;98313.00;4917790;29;8885;-71
2021/05/24 06:50:55;;;;;;;;;7.60;7.60;;;;;36.40;46.19;98311.84;4918645;29;8945;-70
2021/05/24 06:53:24;;;;;;;;;7.20;7.20;;;;;36.46;47.54;98288.03;4919067;29;8867;-70
2021/05/24 06:55:53;;;;;;;;;6.80;6.80;;;;;36.41;48.02;98263.91;4918649;29;9015;-71
2021/05/24 06:58:22;;;;;;;;;9.00;9.00;;;;;36.40;47.69;98252.19;4917464;29;8885;-70
2021/05/24 07:00:51;;;;;;;;;6.40;6.40;;;;;36.60;47.79;98271.00;4917670;29;8989;-71
2021/05/24 07:03:20;;;;;;;;;6.60;6.60;;;;;36.59;47.78;98261.22;4916729;29;8890;-71
2021/05/24 07:05:49;;;;;;;;;8.20;8.20;;;;;36.56;45.99;98251.13;4914396;29;9625;-72
2021/05/24 07:08:18;;;;;;;;;3.60;3.60;;;;;36.69;46.54;98256.50;4916180;29;8862;-71
2021/05/24 07:10:46;;;;;;;;;5.60;5.60;;;;;36.72;45.04;98237.13;4917195;29;8867;-71
2021/05/24 07:13:16;;;;;;;;;6.00;6.00;;;;;36.74;45.99;98229.19;4917393;29;8949;-72
2021/05/24 07:15:45;;;;;;;;;5.00;5.00;;;;;36.92;47.07;98234.00;4917040;29;8874;-72
2021/05/24 07:18:14;;;;;;;;;4.80;4.80;;;;;37.01;46.83;98230.47;4916450;29;8863;-71
2021/05/24 07:20:47;;;;;;;;;5.80;5.80;;;;;37.05;46.41;98222.84;4912968;29;9633;-71
2021/05/24 07:23:17;;;;;;;;;7.00;7.00;;;;;37.01;46.30;98203.75;4917818;29;8878;-71
2021/05/24 07:25:46;;;;;;;;;6.20;6.20;;;;;36.99;43.42;98192.44;4917653;29;8933;-71
2021/05/24 07:28:14;;;;;;;;;3.80;3.80;;;;;36.95;46.08;98163.56;4916924;29;9714;-71
2021/05/24 07:30:43;;;;;;;;;6.00;6.00;;;;;36.94;44.58;98148.31;4916682;29;8858;-70
2021/05/24 07:33:13;;;;;;;;;5.80;5.80;;;;;37.23;44.24;98159.63;4916690;29;8862;-70
2021/05/24 07:35:41;;;;;;;;;6.40;6.40;;;;;37.34;43.58;98154.41;4915431;29;8859;-71
2021/05/24 07:38:10;;;;;;;;;4.60;4.60;;;;;37.45;42.75;98135.44;4916642;29;8869;-71
2021/05/24 07:40:39;;;;;;;;;5.00;5.00;;;;;37.61;43.00;98137.06;4913029;29;8891;-72
2021/05/24 07:43:08;;;;;;;;;5.60;5.60;;;;;37.67;43.77;98131.69;4915910;29;9593;-72
2021/05/24 07:45:37;;;;;;;;;5.60;5.60;;;;;37.72;42.51;98114.56;4916613;29;8854;-72
2021/05/24 07:48:06;;;;;;;;;5.40;5.40;;;;;37.73;42.44;98111.34;4916136;29;8874;-71
2021/05/24 07:50:35;;;;;;;;;5.00;5.00;;;;;37.92;41.55;98138.78;4916120;29;8887;-71
2021/05/24 07:53:04;;;;;;;;;6.00;6.00;;;;;37.94;42.73;98133.59;4912616;29;8854;-71
2021/05/24 07:55:33;;;;;;;;;6.00;6.00;;;;;37.91;43.20;98124.25;4916346;29;8870;-71
2021/05/24 07:58:02;;;;;;;;;6.00;6.00;;;;;38.04;43.23;98122.06;4916773;29;8934;-71
2021/05/24 08:00:31;;;;;;;;;4.60;4.60;;;;;38.08;44.06;98128.16;4917558;29;8859;-70
2021/05/24 08:03:00;;;;;;;;;5.40;5.40;;;;;38.17;41.30;98119.13;4917166;29;8893;-71
2021/05/24 08:05:30;;;;;;;;;4.60;4.60;;;;;38.12;42.82;98103.19;4915574;29;9637;-70
2021/05/24 08:07:59;;;;;;;;;4.00;4.00;;;;;38.17;41.58;98110.84;4915514;29;8891;-70
2021/05/24 08:10:28;;;;;;;;;5.60;5.60;;;;;38.18;42.89;98117.88;4912757;29;8946;-70
2021/05/24 08:12:57;;;;;;;;;7.00;7.00;;;;;38.09;44.12;98109.66;4916005;29;9549;-73
2021/05/24 08:15:30;;;;;;;;;4.00;4.00;;;;;38.03;43.16;98112.28;4916692;29;8879;-71
2021/05/24 08:18:05;;;;;;;;;5.20;5.20;;;;;37.92;42.38;98087.25;4916381;29;8871;-71
2021/05/24 08:20:35;;;;;;;;;5.00;5.00;;;;;37.87;42.31;98085.13;4915617;29;8879;-71
2021/05/24 08:23:07;;;;;;;;;5.20;5.20;;;;;38.12;43.44;98097.69;4915791;29;8885;-73
2021/05/24 08:25:36;;;;;;;;;4.00;4.00;;;;;38.20;41.33;98104.41;4913782;29;8974;-72
2021/05/24 08:28:04;;;;;;;;;5.40;5.40;;;;;38.16;40.84;98085.31;4916121;29;8875;-76
2021/05/24 08:30:34;;;;;;;;;3.80;3.80;;;;;38.29;41.04;98089.81;4914684;29;8851;-71
2021/05/24 08:33:03;;;;;;;;;5.40;5.40;;;;;38.34;41.91;98078.16;4912211;29;8851;-71
2021/05/24 08:35:32;;;;;;;;;4.40;4.40;;;;;38.36;41.42;98067.41;4914562;29;8863;-74
2021/05/24 08:38:01;;;;;;;;;24.20;24.20;;;;;38.49;41.34;98065.94;4915068;29;8882;-74
2021/05/24 08:40:30;;;;;;;;;3.40;3.40;;;;;38.55;40.29;98060.53;4915322;29;8883;-76
2021/05/24 08:43:00;;;;;;;;;1.00;1.00;;;;;38.67;39.38;98054.03;4914397;29;8891;-75
2021/05/24 08:45:30;;;;;;;;;5.00;5.00;;;;;38.71;39.81;98060.13;4915743;29;8894;-76
2021/05/24 08:47:59;;;;;;;;;5.40;5.40;;;;;38.74;40.10;98070.19;4915811;29;9003;-74
2021/05/24 08:50:27;;;;;;;;;5.80;5.80;;;;;38.78;39.01;98057.00;4915533;29;8862;-74
2021/05/24 08:52:56;;;;;;;;;4.00;4.00;;;;;38.78;40.20;98051.47;4915021;29;8870;-73
2021/05/24 08:55:25;;;;;;;;;5.60;5.60;;;;;38.76;40.35;98050.44;4915545;29;8866;-71
2021/05/24 08:57:54;;;;;;;;;5.20;5.20;;;;;38.81;39.83;98069.06;4915366;29;8851;-71
2021/05/24 09:00:23;;;;;;;;;5.00;5.00;;;;;38.79;39.67;98063.25;4914324;29;8870;-71
2021/05/24 09:02:56;;;;;;;;;5.20;5.20;;;;;38.76;39.59;98047.66;4914973;29;8985;-71
2021/05/24 09:05:32;;;;;;;;;5.20;5.20;;;;;38.66;41.28;98033.22;4913974;29;8870;-71
2021/05/24 09:08:05;;;;;;;;;5.40;5.40;;;;;38.57;41.08;98043.53;4915014;29;8886;-71
2021/05/24 09:10:35;;;;;;;;;6.00;6.00;;;;;38.42;42.80;98052.53;4915436;29;8879;-72
2021/05/24 09:13:16;;;;;;;;;4.40;4.40;;;;;38.09;42.25;98041.56;4914899;29;8957;-72
2021/05/24 09:15:47;;;;;;;;;5.80;5.80;;;;;37.84;41.83;98053.03;4914906;29;8862;-72
2021/05/24 09:18:19;;;;;;;;;4.40;4.40;;;;;37.67;41.44;98060.13;4915253;29;8999;-71
2021/05/24 09:20:50;;;;;;;;;5.40;5.40;;;;;37.49;41.70;98081.00;4915223;29;8867;-71
2021/05/24 09:23:30;;;;;;;;;4.00;4.00;;;;;37.28;42.29;98073.72;4915175;29;8858;-71
2021/05/24 09:26:11;;;;;;;;;6.20;6.20;;;;;37.11;44.30;98056.03;4913553;29;8886;-71
2021/05/24 09:28:48;;;;;;;;;5.00;5.00;;;;;36.95;46.31;98062.63;4915739;29;8886;-71
2021/05/24 09:31:31;;;;;;;;;5.80;5.80;;;;;36.74;47.15;98069.03;4915335;29;8942;-71
2021/05/24 09:34:01;;;;;;;;;3.40;3.40;;;;;36.50;47.16;98090.84;4914864;29;8890;-72
2021/05/24 09:36:32;;;;;;;;;5.00;5.00;;;;;36.26;46.51;98087.91;4914899;29;8850;-71
2021/05/24 09:39:11;;;;;;;;;5.00;5.00;;;;;36.05;46.09;98086.81;4915034;29;9608;-71
2021/05/24 09:41:43;;;;;;;;;5.80;5.80;;;;;35.82;46.50;98065.38;4915194;29;9038;-75
2021/05/24 09:44:23;;;;;;;;;5.00;5.00;;;;;35.57;46.93;98064.34;4914762;29;8887;-71
2021/05/24 09:46:52;;;;;;;;;4.40;4.40;;;;;35.24;47.45;98052.28;4915427;29;8870;-70
2021/05/24 09:49:40;;;;;;;;;5.00;5.00;;;;;34.91;48.07;98055.47;4916113;29;8858;-71
2021/05/24 09:52:09;;;;;;;;;3.60;3.60;;;;;34.70;48.40;98058.94;4916216;29;8981;-72
2021/05/24 09:54:40;;;;;;;;;5.20;5.20;;;;;34.52;48.24;98069.75;4916083;29;8873;-70
2021/05/24 09:57:12;;;;;;;;;4.80;3.80;;;;;34.39;48.58;98093.66;4915826;29;8846;-70
2021/05/24 09:59:41;;;;;;;;;5.60;5.60;;;;;34.20;48.59;98131.78;4916070;29;9635;-70
2021/05/24 10:02:12;;;;;;;;;5.00;5.00;;;;;34.01;48.85;98154.66;4916777;29;8890;-70
2021/05/24 10:04:41;;;;;;;;;6.60;5.80;;;;;33.66;49.16;98140.84;4915911;29;8882;-70
2021/05/24 10:07:10;;;;;;;;;6.00;5.20;;;;;33.54;49.31;98152.53;4916081;29;8880;-70
2021/05/24 10:09:39;;;;;;;;;2.40;2.40;;;;;33.39;49.77;98160.38;4915870;29;8893;-70
2021/05/24 10:12:08;;;;;;;;;4.60;4.60;;;;;33.25;49.84;98176.38;4915949;29;8866;-70
2021/05/24 10:14:37;;;;;;;;;4.80;4.80;;;;;33.12;51.67;98211.84;4916156;29;8834;-70
2021/05/24 10:17:07;;;;;;;;;5.20;5.20;;;;;32.52;51.39;98142.34;4915223;29;8875;-70
2021/05/24 10:19:36;;;;;;;;;4.00;4.00;;;;;32.88;52.69;98232.38;4915812;29;9004;-70
2021/05/24 10:22:06;;;;;;;;;9.20;9.20;;;;;32.81;52.09;98247.00;4915828;29;8851;-70
2021/05/24 10:24:35;;;;;;;;;10.80;10.80;;;;;32.68;51.09;98252.34;4916004;29;9611;-70
2021/05/24 10:27:04;;;;;;;;;4.00;4.00;;;;;32.64;51.82;98264.53;4915753;29;8943;-70
2021/05/24 10:29:33;;;;;;;;;10.20;10.20;;;;;32.57;52.24;98265.47;4915771;29;8910;-70
2021/05/24 10:32:02;;;;;;;;;10.40;10.40;;;;;32.55;51.99;98264.34;4915690;29;8874;-70
2021/05/24 10:34:39;;;;;;;;;14.60;13.60;;;;;32.55;51.33;98261.63;4916360;29;8863;-70
2021/05/24 10:37:18;;;;;;;;;9.80;9.80;;;;;32.48;51.21;98270.78;4915659;29;8912;-70
2021/05/24 10:40:05;;;;;;;;;7.00;7.00;;;;;32.46;51.25;98278.63;4915750;29;8858;-70
2021/05/24 10:42:44;;;;;;;;;7.80;7.80;;;;;32.29;51.57;98271.59;4915697;29;8879;-70
2021/05/24 10:45:25;;;;;;;;;8.80;8.80;;;;;32.28;52.32;98295.41;4915634;29;8851;-70
2021/05/24 10:47:57;;;;;;;;;6.00;6.00;;;;;32.19;53.35;98273.34;4915666;29;8855;-70
2021/05/24 10:50:29;;;;;;;;;6.60;6.60;;;;;32.18;51.70;98279.22;4915562;29;8855;-70
2021/05/24 10:53:23;;;;;;;;;3.00;3.00;;;;;31.99;51.65;98292.47;4915630;29;8870;-70
2021/05/24 10:55:53;;;;;;;;;1.00;1.00;;;;;32.02;51.05;98356.31;4915471;29;8843;-70
2021/05/24 10:58:21;;;;;;;;;4.00;4.00;;;;;31.71;51.60;98381.06;4915615;29;8957;-70
2021/05/24 11:01:10;;;;;;;;;3.60;3.60;;;;;31.35;52.19;98389.03;4915552;29;8878;-70
2021/05/24 11:03:58;;;;;;;;;2.20;2.20;;;;;30.98;52.79;98387.25;4915744;29;8946;-70
2021/05/24 11:06:27;;;;;;;;;1.00;1.00;;;;;30.67;53.28;98381.06;4915411;29;8839;-70
2021/05/24 11:09:05;;;;;;;;;0.00;0.00;;;;;30.28;54.38;98372.59;4915454;29;8859;-70
2021/05/24 11:11:35;;;;;;;;;0.00;0.00;;;;;30.04;54.68;98401.63;4914439;29;8915;-70
2021/05/24 11:14:06;;;;;;;;;1.00;1.00;;;;;29.82;55.66;98420.09;4915435;29;8847;-70
2021/05/24 11:16:38;;;;;;;;;0.60;0.60;;;;;29.65;55.84;98429.19;4915238;29;8847;-70
2021/05/24 11:19:13;;;;;;;;;1.00;1.00;;;;;29.48;56.30;98436.31;4915459;29;8863;-70
2021/05/24 11:21:49;;;;;;;;;0.00;0.00;;;;;29.42;56.18;98424.31;4916180;29;8879;-70
2021/05/24 11:27:16;;;;;;;;;1.00;1.00;;;;;29.29;56.50;98469.41;4916317;29;8867;-70
2021/05/24 11:29:49;;;;;;;;;0.60;0.60;;;;;29.21;57.02;98472.16;4918982;29;8946;-70
2021/05/24 11:32:27;;;;;;;;;0.00;0.00;;;;;29.20;60.42;98503.22;4917718;29;8878;-70
2021/05/24 11:34:57;;;;;;;;;0.20;0.20;;;;;29.24;61.54;98535.78;4918651;29;8859;-70
2021/05/24 11:37:44;;;;;;;;;0.00;0.00;;;;;29.21;60.59;98544.75;4918589;29;8850;-70
2021/05/24 11:40:18;;;;;;;;;1.00;1.00;;;;;29.18;60.13;98569.97;4918578;29;8981;-70
2021/05/24 11:42:49;;;;;;;;;0.00;0.00;;;;;29.20;61.26;98601.00;4918545;29;8858;-70
2021/05/24 11:45:23;;;;;;;;;0.00;0.00;;;;;29.19;62.66;98614.97;4918783;29;8874;-69
2021/05/24 11:47:58;;;;;;;;;0.00;0.00;;;;;29.05;60.56;98623.94;4918474;29;8882;-70
2021/05/24 11:50:28;;;;;;;;;0.00;0.00;;;;;29.23;61.04;98660.00;4918450;29;8927;-70
2021/05/24 11:52:57;;;;;;;;;0.20;0.20;;;;;29.32;58.90;98672.38;4918357;29;9719;-70
2021/05/24 11:55:25;;;;;;;;;0.80;0.80;;;;;29.49;60.38;98687.88;4918962;29;8866;-70
2021/05/24 11:57:54;;;;;;;;;0.20;0.20;;;;;29.57;60.23;98699.50;4917149;29;8938;-70
2021/05/24 12:00:25;;;;;;;;;0.00;0.00;;;;;29.68;60.42;98702.94;4918278;29;8947;-70